sensor_id;sensor_type;location;lat;lon;timestamp;pressure;altitude;pressure_sealevel;temperature;humidity
75759;BME280;64371;47.566;19.086;2023-03-19T00:02:43;100837.66;;;4.92;64.94
75759;BME280;64371;47.566;19.086;2023-03-19T00:05:52;100840.53;;;4.79;65.89
75759;BME280;64371;47.566;19.086;2023-03-19T00:08:54;100837.81;;;4.74;65.85
75759;BME280;64371;47.566;19.086;2023-03-19T00:11:57;100841.66;;;4.83;65.63
75759;BME280;64371;47.566;19.086;2023-03-19T00:14:59;100839.25;;;4.70;66.01
75759;BME280;64371;47.566;19.086;2023-03-19T00:18:02;100823.97;;;4.50;66.27
75759;BME280;64371;47.566;19.086;2023-03-19T00:21:06;100835.06;;;4.34;67.28
75759;BME280;64371;47.566;19.086;2023-03-19T00:24:08;100836.16;;;4.15;67.79
75759;BME280;64371;47.566;19.086;2023-03-19T00:27:11;100829.50;;;4.42;67.06
75759;BME280;64371;47.566;19.086;2023-03-19T00:30:14;100827.44;;;4.67;65.97
75759;BME280;64371;47.566;19.086;2023-03-19T00:33:16;100819.81;;;5.01;64.48
75759;BME280;64371;47.566;19.086;2023-03-19T00:36:20;100801.09;;;4.92;64.38
75759;BME280;64371;47.566;19.086;2023-03-19T00:39:22;100811.19;;;5.00;64.38
75759;BME280;64371;47.566;19.086;2023-03-19T00:42:24;100815.28;;;4.96;64.38
75759;BME280;64371;47.566;19.086;2023-03-19T00:45:27;100816.06;;;4.97;64.14
75759;BME280;64371;47.566;19.086;2023-03-19T00:48:32;100815.53;;;4.83;64.41
75759;BME280;64371;47.566;19.086;2023-03-19T00:51:34;100807.81;;;4.53;65.67
75759;BME280;64371;47.566;19.086;2023-03-19T00:54:37;100808.84;;;4.41;65.98
75759;BME280;64371;47.566;19.086;2023-03-19T00:57:39;100796.59;;;4.18;66.89
75759;BME280;64371;47.566;19.086;2023-03-19T01:00:42;100804.44;;;4.30;66.46
75759;BME280;64371;47.566;19.086;2023-03-19T01:03:44;100803.06;;;4.39;65.75
75759;BME280;64371;47.566;19.086;2023-03-19T01:06:47;100804.31;;;4.71;64.45
75759;BME280;64371;47.566;19.086;2023-03-19T01:09:49;100814.41;;;4.79;64.20
75759;BME280;64371;47.566;19.086;2023-03-19T01:12:53;100811.78;;;4.79;64.14
75759;BME280;64371;47.566;19.086;2023-03-19T01:15:55;100804.06;;;4.61;64.41
75759;BME280;64371;47.566;19.086;2023-03-19T01:18:57;100817.00;;;4.67;64.34
75759;BME280;64371;47.566;19.086;2023-03-19T01:22:00;100808.16;;;4.68;64.19
75759;BME280;64371;47.566;19.086;2023-03-19T01:25:04;100802.81;;;4.75;63.91
75759;BME280;64371;47.566;19.086;2023-03-19T01:28:07;100819.19;;;4.59;64.39
75759;BME280;64371;47.566;19.086;2023-03-19T01:31:12;100806.34;;;4.69;64.02
75759;BME280;64371;47.566;19.086;2023-03-19T01:34:29;100810.00;;;4.45;64.48
75759;BME280;64371;47.566;19.086;2023-03-19T01:37:41;100806.34;;;4.46;64.93
75759;BME280;64371;47.566;19.086;2023-03-19T01:40:45;100812.25;;;4.30;65.51
75759;BME280;64371;47.566;19.086;2023-03-19T01:43:49;100805.44;;;4.17;65.95
75759;BME280;64371;47.566;19.086;2023-03-19T01:50:43;100800.00;;;4.19;65.88
75759;BME280;64371;47.566;19.086;2023-03-19T01:54:12;100805.44;;;4.63;64.19
75759;BME280;64371;47.566;19.086;2023-03-19T01:57:21;100808.50;;;4.72;63.52
75759;BME280;64371;47.566;19.086;2023-03-19T02:00:42;100809.88;;;4.63;63.96
75759;BME280;64371;47.566;19.086;2023-03-19T02:03:45;100805.56;;;4.57;64.26
75759;BME280;64371;47.566;19.086;2023-03-19T02:06:55;100811.00;;;4.44;64.43
75759;BME280;64371;47.566;19.086;2023-03-19T02:09:59;100810.44;;;4.30;65.09
75759;BME280;64371;47.566;19.086;2023-03-19T02:13:03;100807.03;;;4.30;65.21
75759;BME280;64371;47.566;19.086;2023-03-19T02:16:06;100803.50;;;4.24;65.30
75759;BME280;64371;47.566;19.086;2023-03-19T02:19:12;100789.09;;;4.22;64.73
75759;BME280;64371;47.566;19.086;2023-03-19T02:22:20;100807.84;;;4.30;64.81
75759;BME280;64371;47.566;19.086;2023-03-19T02:25:31;100803.97;;;4.21;65.24
75759;BME280;64371;47.566;19.086;2023-03-19T02:28:40;100789.78;;;4.17;65.10
75759;BME280;64371;47.566;19.086;2023-03-19T02:31:44;100799.69;;;4.38;64.56
75759;BME280;64371;47.566;19.086;2023-03-19T02:34:47;100797.03;;;4.27;64.47
75759;BME280;64371;47.566;19.086;2023-03-19T02:37:49;100801.00;;;4.18;64.54
75759;BME280;64371;47.566;19.086;2023-03-19T02:41:04;100796.03;;;4.16;65.26
75759;BME280;64371;47.566;19.086;2023-03-19T02:44:08;100801.31;;;4.10;64.94
75759;BME280;64371;47.566;19.086;2023-03-19T02:47:13;100800.75;;;3.96;65.35
75759;BME280;64371;47.566;19.086;2023-03-19T02:50:15;100794.03;;;3.88;65.55
75759;BME280;64371;47.566;19.086;2023-03-19T02:53:18;100792.09;;;3.43;67.29
75759;BME280;64371;47.566;19.086;2023-03-19T02:56:20;100804.69;;;2.98;69.52
75759;BME280;64371;47.566;19.086;2023-03-19T02:59:23;100799.19;;;2.88;70.83
75759;BME280;64371;47.566;19.086;2023-03-19T03:02:26;100797.38;;;2.70;71.13
75759;BME280;64371;47.566;19.086;2023-03-19T03:05:28;100803.97;;;2.48;72.16
75759;BME280;64371;47.566;19.086;2023-03-19T03:08:31;100810.91;;;2.36;72.87
75759;BME280;64371;47.566;19.086;2023-03-19T03:11:34;100814.66;;;2.40;72.69
75759;BME280;64371;47.566;19.086;2023-03-19T03:14:37;100815.28;;;2.35;73.68
75759;BME280;64371;47.566;19.086;2023-03-19T03:17:40;100814.66;;;2.40;73.50
75759;BME280;64371;47.566;19.086;2023-03-19T03:20:43;100810.97;;;2.29;74.18
75759;BME280;64371;47.566;19.086;2023-03-19T03:23:47;100808.75;;;2.08;75.29
75759;BME280;64371;47.566;19.086;2023-03-19T03:26:49;100806.16;;;2.01;75.78
75759;BME280;64371;47.566;19.086;2023-03-19T03:29:53;100803.94;;;2.05;76.26
75759;BME280;64371;47.566;19.086;2023-03-19T03:32:56;100809.41;;;1.97;76.68
75759;BME280;64371;47.566;19.086;2023-03-19T03:35:58;100803.41;;;1.96;76.44
75759;BME280;64371;47.566;19.086;2023-03-19T03:39:01;100807.56;;;1.73;77.36
75759;BME280;64371;47.566;19.086;2023-03-19T03:42:03;100804.34;;;1.77;78.05
75759;BME280;64371;47.566;19.086;2023-03-19T03:45:08;100808.38;;;1.73;78.13
75759;BME280;64371;47.566;19.086;2023-03-19T03:48:12;100814.53;;;1.79;77.44
75759;BME280;64371;47.566;19.086;2023-03-19T03:51:16;100814.53;;;1.79;78.21
75759;BME280;64371;47.566;19.086;2023-03-19T03:54:18;100809.75;;;1.76;78.46
75759;BME280;64371;47.566;19.086;2023-03-19T03:57:21;100810.97;;;1.73;78.72
75759;BME280;64371;47.566;19.086;2023-03-19T04:00:23;100819.00;;;1.72;78.66
75759;BME280;64371;47.566;19.086;2023-03-19T04:03:26;100816.53;;;1.77;78.87
75759;BME280;64371;47.566;19.086;2023-03-19T04:06:29;100817.56;;;1.76;78.47
75759;BME280;64371;47.566;19.086;2023-03-19T04:09:56;100814.66;;;1.59;78.58
75759;BME280;64371;47.566;19.086;2023-03-19T04:12:59;100803.88;;;1.56;78.52
75759;BME280;64371;47.566;19.086;2023-03-19T04:16:05;100817.13;;;1.48;79.56
75759;BME280;64371;47.566;19.086;2023-03-19T04:19:09;100810.53;;;1.39;79.45
75759;BME280;64371;47.566;19.086;2023-03-19T04:22:11;100803.97;;;1.36;78.92
75759;BME280;64371;47.566;19.086;2023-03-19T04:25:15;100799.00;;;1.34;78.47
75759;BME280;64371;47.566;19.086;2023-03-19T04:28:19;100794.03;;;1.26;79.24
75759;BME280;64371;47.566;19.086;2023-03-19T04:31:21;100795.09;;;1.57;78.12
75759;BME280;64371;47.566;19.086;2023-03-19T04:34:23;100791.34;;;1.46;78.06
75759;BME280;64371;47.566;19.086;2023-03-19T04:37:26;100796.56;;;1.40;77.80
75759;BME280;64371;47.566;19.086;2023-03-19T04:40:29;100790.44;;;1.27;78.23
75759;BME280;64371;47.566;19.086;2023-03-19T04:43:31;100783.28;;;1.23;78.78
75759;BME280;64371;47.566;19.086;2023-03-19T04:46:37;100795.22;;;1.24;78.85
75759;BME280;64371;47.566;19.086;2023-03-19T04:49:39;100790.91;;;1.05;79.11
75759;BME280;64371;47.566;19.086;2023-03-19T04:52:43;100791.88;;;1.17;78.89
75759;BME280;64371;47.566;19.086;2023-03-19T04:55:46;100802.66;;;1.20;78.20
75759;BME280;64371;47.566;19.086;2023-03-19T04:58:51;100799.28;;;1.13;78.44
75759;BME280;64371;47.566;19.086;2023-03-19T05:01:53;100807.25;;;1.18;78.38
75759;BME280;64371;47.566;19.086;2023-03-19T05:04:57;100812.97;;;1.33;77.80
75759;BME280;64371;47.566;19.086;2023-03-19T05:08:00;100815.13;;;1.43;77.76
75759;BME280;64371;47.566;19.086;2023-03-19T05:11:03;100818.59;;;1.68;76.82
75759;BME280;64371;47.566;19.086;2023-03-19T05:14:17;100820.09;;;1.82;76.12
75759;BME280;64371;47.566;19.086;2023-03-19T05:17:42;100819.91;;;2.09;75.24
75759;BME280;64371;47.566;19.086;2023-03-19T05:20:55;100813.72;;;2.34;74.14
75759;BME280;64371;47.566;19.086;2023-03-19T05:23:59;100811.63;;;2.43;73.42
75759;BME280;64371;47.566;19.086;2023-03-19T05:27:04;100807.63;;;2.65;72.54
75759;BME280;64371;47.566;19.086;2023-03-19T05:30:34;100819.88;;;2.83;71.74
75759;BME280;64371;47.566;19.086;2023-03-19T05:34:03;100818.28;;;3.00;71.15
75759;BME280;64371;47.566;19.086;2023-03-19T05:37:08;100829.09;;;3.33;69.94
75759;BME280;64371;47.566;19.086;2023-03-19T05:40:11;100825.41;;;3.22;69.64
75759;BME280;64371;47.566;19.086;2023-03-19T05:43:17;100825.84;;;3.67;68.13
75759;BME280;64371;47.566;19.086;2023-03-19T05:46:20;100833.66;;;3.97;66.98
75759;BME280;64371;47.566;19.086;2023-03-19T05:49:23;100836.78;;;4.40;65.61
75759;BME280;64371;47.566;19.086;2023-03-19T05:52:25;100845.50;;;4.92;63.84
75759;BME280;64371;47.566;19.086;2023-03-19T05:55:31;100839.00;;;5.18;62.89
75759;BME280;64371;47.566;19.086;2023-03-19T05:58:44;100835.59;;;5.46;61.59
75759;BME280;64371;47.566;19.086;2023-03-19T06:01:50;100836.38;;;5.86;60.44
75759;BME280;64371;47.566;19.086;2023-03-19T06:04:53;100835.44;;;6.09;59.86
75759;BME280;64371;47.566;19.086;2023-03-19T06:08:00;100844.00;;;6.04;59.63
75759;BME280;64371;47.566;19.086;2023-03-19T06:11:22;100841.22;;;6.11;58.58
75759;BME280;64371;47.566;19.086;2023-03-19T06:14:40;100836.88;;;5.99;58.87
75759;BME280;64371;47.566;19.086;2023-03-19T06:18:15;100852.00;;;6.47;57.78
75759;BME280;64371;47.566;19.086;2023-03-19T06:21:18;100855.56;;;6.75;56.68
75759;BME280;64371;47.566;19.086;2023-03-19T06:24:21;100857.09;;;6.37;57.53
75759;BME280;64371;47.566;19.086;2023-03-19T06:27:23;100847.09;;;6.51;57.89
75759;BME280;64371;47.566;19.086;2023-03-19T06:30:29;100851.78;;;7.25;54.29
75759;BME280;64371;47.566;19.086;2023-03-19T06:33:34;100845.41;;;7.65;53.19
75759;BME280;64371;47.566;19.086;2023-03-19T06:36:38;100843.38;;;7.98;52.35
75759;BME280;64371;47.566;19.086;2023-03-19T06:39:43;100859.59;;;7.95;51.74
75759;BME280;64371;47.566;19.086;2023-03-19T06:42:46;100866.03;;;8.36;50.50
75759;BME280;64371;47.566;19.086;2023-03-19T06:45:49;100870.75;;;8.34;49.17
75759;BME280;64371;47.566;19.086;2023-03-19T06:48:52;100862.53;;;8.62;49.54
75759;BME280;64371;47.566;19.086;2023-03-19T06:51:55;100879.16;;;9.20;47.45
75759;BME280;64371;47.566;19.086;2023-03-19T06:54:57;100877.53;;;9.14;47.21
75759;BME280;64371;47.566;19.086;2023-03-19T06:58:00;100879.56;;;9.54;46.79
75759;BME280;64371;47.566;19.086;2023-03-19T07:01:02;100872.00;;;9.87;46.10
75759;BME280;64371;47.566;19.086;2023-03-19T07:04:05;100874.09;;;9.95;45.57
75759;BME280;64371;47.566;19.086;2023-03-19T07:07:08;100870.72;;;9.95;44.94
75759;BME280;64371;47.566;19.086;2023-03-19T07:10:10;100862.47;;;9.61;45.31
75759;BME280;64371;47.566;19.086;2023-03-19T07:13:14;100862.00;;;9.99;44.30
75759;BME280;64371;47.566;19.086;2023-03-19T07:16:16;100861.53;;;10.33;44.03
75759;BME280;64371;47.566;19.086;2023-03-19T07:19:18;100858.34;;;10.56;42.71
75759;BME280;64371;47.566;19.086;2023-03-19T07:22:21;100855.44;;;10.57;43.32
75759;BME280;64371;47.566;19.086;2023-03-19T07:25:23;100853.34;;;10.54;42.89
75759;BME280;64371;47.566;19.086;2023-03-19T07:28:27;100853.38;;;10.19;43.57
75759;BME280;64371;47.566;19.086;2023-03-19T07:31:29;100848.19;;;9.47;44.38
75759;BME280;64371;47.566;19.086;2023-03-19T07:34:31;100842.19;;;9.62;43.96
75759;BME280;64371;47.566;19.086;2023-03-19T07:37:34;100847.03;;;10.05;42.37
75759;BME280;64371;47.566;19.086;2023-03-19T07:40:36;100847.25;;;9.98;42.17
75759;BME280;64371;47.566;19.086;2023-03-19T07:43:44;100861.47;;;10.73;41.07
75759;BME280;64371;47.566;19.086;2023-03-19T07:46:46;100847.66;;;11.11;39.86
75759;BME280;64371;47.566;19.086;2023-03-19T07:49:48;100849.16;;;10.33;41.16
75759;BME280;64371;47.566;19.086;2023-03-19T07:52:51;100845.69;;;10.53;41.38
75759;BME280;64371;47.566;19.086;2023-03-19T07:55:53;100842.94;;;11.03;39.07
75759;BME280;64371;47.566;19.086;2023-03-19T07:58:56;100847.50;;;10.78;39.56
75759;BME280;64371;47.566;19.086;2023-03-19T08:01:58;100850.19;;;10.22;40.96
75759;BME280;64371;47.566;19.086;2023-03-19T08:05:01;100848.53;;;10.92;39.83
75759;BME280;64371;47.566;19.086;2023-03-19T08:08:05;100837.78;;;10.63;39.98
75759;BME280;64371;47.566;19.086;2023-03-19T08:11:09;100837.88;;;11.66;37.89
75759;BME280;64371;47.566;19.086;2023-03-19T08:14:11;100826.81;;;11.64;37.68
75759;BME280;64371;47.566;19.086;2023-03-19T08:17:13;100825.94;;;11.29;39.32
75759;BME280;64371;47.566;19.086;2023-03-19T08:20:16;100828.44;;;11.60;37.86
75759;BME280;64371;47.566;19.086;2023-03-19T08:23:18;100827.44;;;11.46;38.03
75759;BME280;64371;47.566;19.086;2023-03-19T08:26:21;100824.44;;;11.08;39.02
75759;BME280;64371;47.566;19.086;2023-03-19T08:29:23;100829.91;;;11.27;38.25
75759;BME280;64371;47.566;19.086;2023-03-19T08:32:28;100828.84;;;11.33;38.96
75759;BME280;64371;47.566;19.086;2023-03-19T08:35:30;100834.19;;;11.67;37.57
75759;BME280;64371;47.566;19.086;2023-03-19T08:38:33;100834.59;;;12.23;36.75
75759;BME280;64371;47.566;19.086;2023-03-19T08:41:35;100824.63;;;12.43;36.72
75759;BME280;64371;47.566;19.086;2023-03-19T08:44:38;100829.91;;;11.81;37.56
75759;BME280;64371;47.566;19.086;2023-03-19T08:47:41;100833.94;;;11.68;38.22
75759;BME280;64371;47.566;19.086;2023-03-19T08:50:43;100836.53;;;12.41;37.10
75759;BME280;64371;47.566;19.086;2023-03-19T08:53:46;100833.34;;;11.81;37.83
75759;BME280;64371;47.566;19.086;2023-03-19T08:56:48;100827.31;;;11.66;37.46
75759;BME280;64371;47.566;19.086;2023-03-19T08:59:51;100818.97;;;12.26;36.83
75759;BME280;64371;47.566;19.086;2023-03-19T09:02:54;100820.88;;;12.73;35.57
75759;BME280;64371;47.566;19.086;2023-03-19T09:05:58;100813.59;;;13.12;35.22
75759;BME280;64371;47.566;19.086;2023-03-19T09:09:01;100806.19;;;12.05;36.98
75759;BME280;64371;47.566;19.086;2023-03-19T09:12:04;100811.69;;;12.89;35.47
75759;BME280;64371;47.566;19.086;2023-03-19T09:15:08;100818.00;;;12.70;36.02
75759;BME280;64371;47.566;19.086;2023-03-19T09:18:11;100808.31;;;12.84;35.36
75759;BME280;64371;47.566;19.086;2023-03-19T09:21:13;100809.81;;;12.71;35.94
75759;BME280;64371;47.566;19.086;2023-03-19T09:24:16;100811.22;;;12.35;36.49
75759;BME280;64371;47.566;19.086;2023-03-19T09:27:18;100810.56;;;12.19;36.89
75759;BME280;64371;47.566;19.086;2023-03-19T09:30:22;100810.66;;;12.38;36.53
75759;BME280;64371;47.566;19.086;2023-03-19T09:33:24;100811.53;;;12.57;35.54
75759;BME280;64371;47.566;19.086;2023-03-19T09:36:27;100808.81;;;12.62;35.55
75759;BME280;64371;47.566;19.086;2023-03-19T09:39:29;100804.94;;;13.25;34.54
75759;BME280;64371;47.566;19.086;2023-03-19T09:42:48;100792.91;;;12.67;35.20
75759;BME280;64371;47.566;19.086;2023-03-19T09:45:54;100793.63;;;12.96;34.98
75759;BME280;64371;47.566;19.086;2023-03-19T09:49:13;100799.06;;;13.28;34.57
75759;BME280;64371;47.566;19.086;2023-03-19T09:52:30;100793.56;;;13.44;34.31
75759;BME280;64371;47.566;19.086;2023-03-19T09:55:42;100788.88;;;13.91;33.19
75759;BME280;64371;47.566;19.086;2023-03-19T09:58:45;100786.88;;;13.27;33.87
75759;BME280;64371;47.566;19.086;2023-03-19T10:01:56;100788.22;;;13.06;34.52
75759;BME280;64371;47.566;19.086;2023-03-19T10:11:57;100791.59;;;13.86;33.42
75759;BME280;64371;47.566;19.086;2023-03-19T10:15:16;100783.00;;;13.94;33.54
75759;BME280;64371;47.566;19.086;2023-03-19T10:18:33;100779.88;;;13.55;33.74
75759;BME280;64371;47.566;19.086;2023-03-19T10:21:44;100778.38;;;13.68;33.33
75759;BME280;64371;47.566;19.086;2023-03-19T10:24:49;100776.31;;;13.46;33.96
75759;BME280;64371;47.566;19.086;2023-03-19T10:27:59;100777.34;;;13.82;33.69
75759;BME280;64371;47.566;19.086;2023-03-19T10:34:41;100765.34;;;13.53;34.81
75759;BME280;64371;47.566;19.086;2023-03-19T10:37:44;100768.94;;;13.94;34.02
75759;BME280;64371;47.566;19.086;2023-03-19T10:41:07;100764.25;;;14.50;33.21
75759;BME280;64371;47.566;19.086;2023-03-19T10:47:44;100759.44;;;14.52;33.04
75759;BME280;64371;47.566;19.086;2023-03-19T10:50:57;100743.56;;;14.20;33.69
75759;BME280;64371;47.566;19.086;2023-03-19T10:54:14;100733.41;;;13.95;34.33
75759;BME280;64371;47.566;19.086;2023-03-19T10:57:24;100742.91;;;13.64;34.95
75759;BME280;64371;47.566;19.086;2023-03-19T11:00:28;100728.31;;;13.98;34.04
75759;BME280;64371;47.566;19.086;2023-03-19T11:03:50;100723.75;;;13.85;35.01
75759;BME280;64371;47.566;19.086;2023-03-19T11:06:55;100720.09;;;14.27;33.79
75759;BME280;64371;47.566;19.086;2023-03-19T11:10:03;100714.22;;;14.44;33.38
75759;BME280;64371;47.566;19.086;2023-03-19T11:13:22;100713.22;;;14.26;33.76
75759;BME280;64371;47.566;19.086;2023-03-19T11:16:25;100690.16;;;13.67;34.49
75759;BME280;64371;47.566;19.086;2023-03-19T11:19:30;100699.72;;;13.95;34.22
75759;BME280;64371;47.566;19.086;2023-03-19T11:22:35;100696.09;;;13.91;34.85
75759;BME280;64371;47.566;19.086;2023-03-19T11:25:40;100697.78;;;13.87;34.25
75759;BME280;64371;47.566;19.086;2023-03-19T11:28:49;100681.94;;;13.82;34.50
75759;BME280;64371;47.566;19.086;2023-03-19T11:35:37;100673.50;;;13.80;34.04
75759;BME280;64371;47.566;19.086;2023-03-19T11:38:56;100671.44;;;13.91;33.75
75759;BME280;64371;47.566;19.086;2023-03-19T11:51:56;100654.34;;;13.83;33.18
75759;BME280;64371;47.566;19.086;2023-03-19T12:05:32;100638.13;;;14.80;31.25
75759;BME280;64371;47.566;19.086;2023-03-19T12:09:03;100631.47;;;14.69;32.01
75759;BME280;64371;47.566;19.086;2023-03-19T12:26:01;100603.50;;;14.85;30.46
75759;BME280;64371;47.566;19.086;2023-03-19T12:35:35;100590.84;;;14.82;30.83
75759;BME280;64371;47.566;19.086;2023-03-19T12:38:57;100591.25;;;14.98;30.30
75759;BME280;64371;47.566;19.086;2023-03-19T12:42:04;100586.00;;;15.28;29.79
75759;BME280;64371;47.566;19.086;2023-03-19T12:45:28;100573.25;;;15.70;29.59
75759;BME280;64371;47.566;19.086;2023-03-19T12:49:05;100578.44;;;15.75;28.94
75759;BME280;64371;47.566;19.086;2023-03-19T12:52:21;100568.44;;;15.19;29.67
75759;BME280;64371;47.566;19.086;2023-03-19T12:55:34;100559.03;;;15.13;30.15
75759;BME280;64371;47.566;19.086;2023-03-19T12:59:00;100565.31;;;15.17;30.20
75759;BME280;64371;47.566;19.086;2023-03-19T13:02:25;100561.66;;;15.57;29.58
75759;BME280;64371;47.566;19.086;2023-03-19T13:05:34;100552.97;;;15.82;29.38
75759;BME280;64371;47.566;19.086;2023-03-19T13:08:43;100544.94;;;15.65;29.13
75759;BME280;64371;47.566;19.086;2023-03-19T13:12:16;100543.59;;;15.76;29.25
75759;BME280;64371;47.566;19.086;2023-03-19T13:18:40;100533.47;;;15.48;29.67
75759;BME280;64371;47.566;19.086;2023-03-19T13:21:52;100535.75;;;15.71;29.27
75759;BME280;64371;47.566;19.086;2023-03-19T13:24:57;100533.06;;;15.63;29.63
75759;BME280;64371;47.566;19.086;2023-03-19T13:28:07;100518.31;;;15.48;30.19
75759;BME280;64371;47.566;19.086;2023-03-19T13:31:19;100526.75;;;15.50;29.55
75759;BME280;64371;47.566;19.086;2023-03-19T13:34:25;100518.81;;;15.59;29.66
75759;BME280;64371;47.566;19.086;2023-03-19T13:37:28;100522.00;;;15.69;29.84
75759;BME280;64371;47.566;19.086;2023-03-19T13:40:48;100508.22;;;15.67;29.41
75759;BME280;64371;47.566;19.086;2023-03-19T13:43:52;100506.56;;;15.97;29.22
75759;BME280;64371;47.566;19.086;2023-03-19T13:46:55;100498.84;;;15.70;29.53
75759;BME280;64371;47.566;19.086;2023-03-19T13:53:34;100486.50;;;15.74;29.60
75759;BME280;64371;47.566;19.086;2023-03-19T14:04:03;100491.22;;;15.38;29.92
75759;BME280;64371;47.566;19.086;2023-03-19T14:10:22;100469.31;;;15.32;30.55
75759;BME280;64371;47.566;19.086;2023-03-19T14:13:41;100473.78;;;15.45;30.50
75759;BME280;64371;47.566;19.086;2023-03-19T14:16:50;100482.00;;;15.44;30.12
75759;BME280;64371;47.566;19.086;2023-03-19T14:19:55;100482.06;;;15.52;29.94
75759;BME280;64371;47.566;19.086;2023-03-19T14:26:14;100483.84;;;15.74;29.84
75759;BME280;64371;47.566;19.086;2023-03-19T14:29:17;100478.72;;;15.94;29.72
75759;BME280;64371;47.566;19.086;2023-03-19T14:32:31;100478.06;;;15.80;29.60
75759;BME280;64371;47.566;19.086;2023-03-19T14:35:39;100450.06;;;15.66;30.31
75759;BME280;64371;47.566;19.086;2023-03-19T14:38:57;100472.84;;;15.50;30.20
75759;BME280;64371;47.566;19.086;2023-03-19T14:42:04;100469.03;;;15.42;30.64
75759;BME280;64371;47.566;19.086;2023-03-19T14:46:02;100468.19;;;15.24;30.90
75759;BME280;64371;47.566;19.086;2023-03-19T14:52:42;100469.00;;;15.34;31.17
75759;BME280;64371;47.566;19.086;2023-03-19T14:55:50;100461.44;;;15.49;30.45
75759;BME280;64371;47.566;19.086;2023-03-19T14:58:54;100472.25;;;15.61;30.53
75759;BME280;64371;47.566;19.086;2023-03-19T15:01:57;100460.38;;;15.67;30.15
75759;BME280;64371;47.566;19.086;2023-03-19T15:05:08;100466.28;;;15.56;30.15
75759;BME280;64371;47.566;19.086;2023-03-19T15:08:12;100464.75;;;15.63;30.01
75759;BME280;64371;47.566;19.086;2023-03-19T15:11:31;100462.09;;;15.63;30.41
75759;BME280;64371;47.566;19.086;2023-03-19T15:18:09;100473.59;;;15.50;30.03
75759;BME280;64371;47.566;19.086;2023-03-19T15:21:13;100462.91;;;15.33;30.09
75759;BME280;64371;47.566;19.086;2023-03-19T15:24:17;100470.50;;;15.26;30.86
75759;BME280;64371;47.566;19.086;2023-03-19T15:27:24;100478.34;;;15.22;30.93
75759;BME280;64371;47.566;19.086;2023-03-19T15:30:27;100469.69;;;15.08;30.54
75759;BME280;64371;47.566;19.086;2023-03-19T15:33:33;100460.88;;;14.99;30.72
75759;BME280;64371;47.566;19.086;2023-03-19T15:36:43;100475.69;;;14.92;31.58
75759;BME280;64371;47.566;19.086;2023-03-19T15:39:49;100472.69;;;14.85;31.52
75759;BME280;64371;47.566;19.086;2023-03-19T15:42:54;100467.19;;;14.81;31.14
75759;BME280;64371;47.566;19.086;2023-03-19T15:45:59;100464.97;;;14.75;31.60
75759;BME280;64371;47.566;19.086;2023-03-19T15:49:16;100466.00;;;14.65;31.22
75759;BME280;64371;47.566;19.086;2023-03-19T15:52:22;100482.09;;;14.69;31.70
75759;BME280;64371;47.566;19.086;2023-03-19T15:55:26;100478.34;;;14.70;32.33
75759;BME280;64371;47.566;19.086;2023-03-19T15:58:31;100489.81;;;14.56;31.89
75759;BME280;64371;47.566;19.086;2023-03-19T16:01:37;100485.47;;;14.38;32.50
75759;BME280;64371;47.566;19.086;2023-03-19T16:04:43;100488.59;;;14.40;32.89
75759;BME280;64371;47.566;19.086;2023-03-19T16:08:17;100490.47;;;14.40;32.80
75759;BME280;64371;47.566;19.086;2023-03-19T16:11:29;100489.81;;;14.21;32.63
75759;BME280;64371;47.566;19.086;2023-03-19T16:14:42;100497.91;;;14.02;33.39
75759;BME280;64371;47.566;19.086;2023-03-19T16:17:44;100489.56;;;13.95;33.88
75759;BME280;64371;47.566;19.086;2023-03-19T16:21:04;100497.72;;;13.85;34.39
75759;BME280;64371;47.566;19.086;2023-03-19T16:24:34;100499.19;;;13.64;34.63
75759;BME280;64371;47.566;19.086;2023-03-19T16:27:39;100491.38;;;13.59;34.39
75759;BME280;64371;47.566;19.086;2023-03-19T16:30:49;100490.09;;;13.56;34.39
75759;BME280;64371;47.566;19.086;2023-03-19T16:33:52;100487.44;;;13.70;34.04
75759;BME280;64371;47.566;19.086;2023-03-19T16:36:54;100487.50;;;13.78;34.14
75759;BME280;64371;47.566;19.086;2023-03-19T16:43:22;100505.69;;;13.85;33.80
75759;BME280;64371;47.566;19.086;2023-03-19T16:46:24;100513.94;;;13.70;34.41
75759;BME280;64371;47.566;19.086;2023-03-19T16:49:27;100516.66;;;13.38;34.87
75759;BME280;64371;47.566;19.086;2023-03-19T16:52:30;100518.00;;;13.08;35.53
75759;BME280;64371;47.566;19.086;2023-03-19T16:55:35;100513.81;;;13.02;35.90
75759;BME280;64371;47.566;19.086;2023-03-19T16:58:43;100524.88;;;12.72;36.50
75759;BME280;64371;47.566;19.086;2023-03-19T17:01:45;100513.97;;;12.59;37.58
75759;BME280;64371;47.566;19.086;2023-03-19T17:04:48;100522.75;;;12.55;37.46
75759;BME280;64371;47.566;19.086;2023-03-19T17:07:51;100524.44;;;12.83;36.79
75759;BME280;64371;47.566;19.086;2023-03-19T17:10:53;100520.66;;;13.08;36.19
75759;BME280;64371;47.566;19.086;2023-03-19T17:13:57;100517.13;;;13.40;35.44
75759;BME280;64371;47.566;19.086;2023-03-19T17:17:00;100530.09;;;13.55;35.58
75759;BME280;64371;47.566;19.086;2023-03-19T17:20:03;100530.69;;;13.52;35.47
75759;BME280;64371;47.566;19.086;2023-03-19T17:23:11;100523.03;;;13.37;36.22
75759;BME280;64371;47.566;19.086;2023-03-19T17:26:20;100534.00;;;13.30;36.32
75759;BME280;64371;47.566;19.086;2023-03-19T17:29:23;100532.31;;;13.20;36.39
75759;BME280;64371;47.566;19.086;2023-03-19T17:32:27;100535.56;;;13.17;36.66
75759;BME280;64371;47.566;19.086;2023-03-19T17:35:29;100527.50;;;13.09;36.91
75759;BME280;64371;47.566;19.086;2023-03-19T17:38:32;100531.38;;;12.98;37.39
75759;BME280;64371;47.566;19.086;2023-03-19T17:41:35;100529.22;;;13.00;37.43
75759;BME280;64371;47.566;19.086;2023-03-19T17:44:37;100526.84;;;12.98;37.39